Nypd 317 — WDI5352 — position and weather

sailwx.info

Track history (hours):
 
Tides and Currents Weather Stations Pressure Air Temp Water Temp Dewpoint Dewpoint Depression Visibility Wind Speed Wind Dir Waves Ship Positions

Nypd 317

Owner: New York City Police Department, Brooklyn, NY. More information available from US FCC via Universal Licensing System.

Last reported at 2017-Oct-19 02:42 UTC. Time now 2017-Oct-20 11:04 UTC.
Position N 40°39' W 074°02'.

Length 11 m; draft 1 m.

Type: Law enforcement. MMSI: 367707680.

Date/timePositionNaut miles runAvg speedWind from/ knotsBaromVisibWave heightAir tempDewpointWater temp
2017-Oct-19 02:42N 40°39' W 074°02'0 0.2
2017-Oct-19 00:17N 40°39' W 074°02'519.3
2017-Oct-19 00:00N 40°43' W 073°58'1210.0
2017-Oct-18 22:49N 40°51' W 073°46'3 1.2
2017-Oct-18 20:03N 40°48' W 073°47'128.9
2017-Oct-18 20:00N 40°48' W 073°49'1020.5
2017-Oct-18 19:30N 40°42' W 073°60'2 3.4
2017-Oct-18 19:01N 40°42' W 074°02'3 6.5
2017-Oct-18 18:30N 40°39' W 074°02'0 0.1
2017-Oct-18 18:00N 40°39' W 074°02'1016.5
2017-Oct-18 17:22N 40°48' W 073°56'822.6
2017-Oct-18 17:01N 40°41' W 074°01'2 0.1
2017-Oct-18 00:42N 40°39' W 074°02'0 0.1
2017-Oct-18 00:30N 40°39' W 074°02'1 2.9
2017-Oct-18 00:01N 40°40' W 074°01'1020.1
2017-Oct-17 23:30N 40°48' W 073°53'4 0.8
2017-Oct-17 18:56N 40°48' W 073°48'1024.1
2017-Oct-17 18:31N 40°42' W 073°60'3 5.0
2017-Oct-17 18:01N 40°41' W 074°03'3 0.1
2017-Oct-17 00:34N 40°39' W 074°02'0 0.1
2017-Oct-17 00:30N 40°39' W 074°02'611.9
2017-Oct-17 00:00N 40°44' W 073°58'7 1.9
2017-Oct-16 20:19N 40°48' W 073°51'826.1
2017-Oct-16 20:01N 40°43' W 073°59'2 3.7
2017-Oct-16 19:30N 40°43' W 074°01'0 0.0
2017-Oct-16 19:00N 40°43' W 074°01'1 2.4
2017-Oct-16 18:30N 40°42' W 074°02'3 0.2
2017-Oct-16 00:42N 40°39' W 074°02'0 0.0
2017-Oct-13 23:12N 40°39' W 074°02'420.0
2017-Oct-13 23:00N 40°39' W 074°07'4 0.8
2017-Oct-13 17:45N 40°35' W 074°04'519.8
2017-Oct-13 17:30N 40°40' W 074°03'1 2.2
2017-Oct-13 17:00N 40°40' W 074°01'1 0.1
2017-Oct-12 19:11N 40°39' W 074°02'1 7.6
2017-Oct-12 19:00N 40°40' W 074°01'1224.5
2017-Oct-12 18:30N 40°52' W 073°57'1 1.1
2017-Oct-12 18:00N 40°51' W 073°57'1 1.8
2017-Oct-12 17:30N 40°52' W 073°57'1 1.9
2017-Oct-12 17:00N 40°51' W 073°57'0 0.2
2017-Oct-12 16:29N 40°51' W 073°57'612.3
2017-Oct-12 16:00N 40°46' W 074°00'510.7
2017-Oct-12 15:29N 40°40' W 074°01'2 3.6
2017-Oct-12 15:00N 40°39' W 074°02'0 0.0
2017-Oct-12 00:38N 40°39' W 074°02'0 0.1
2017-Oct-12 00:30N 40°39' W 074°02'13 2.2
2017-Oct-11 18:34N 40°48' W 073°50'226.0
2017-Oct-11 18:30N 40°48' W 073°52'1123.0
2017-Oct-11 18:01N 40°39' W 074°02'0 0.9
2017-Oct-11 17:30N 40°39' W 074°02'3 0.1
2017-Oct-11 00:00N 40°41' W 074°03'3 5.9
2017-Oct-10 23:30N 40°43' W 073°59'1119.7
2017-Oct-10 22:58N 40°48' W 073°47'2 0.4
2017-Oct-10 19:01N 40°48' W 073°49'130.5
2017-Oct-10 19:00N 40°48' W 073°50'1021.1
2017-Oct-10 18:30N 40°42' W 074°01'3 5.0
2017-Oct-10 18:01N 40°40' W 074°03'3 0.1
2017-Oct-09 15:02N 40°43' W 074°01'0 0.7
2017-Oct-09 15:00N 40°43' W 074°01'1 2.2
2017-Oct-09 14:30N 40°43' W 073°60'0 0.0
2017-Oct-09 14:01N 40°43' W 073°60'0 0.0
2017-Oct-09 13:31N 40°43' W 073°60'4 1.1
2017-Oct-09 09:54N 40°39' W 074°02'0 0.1
2017-Oct-09 09:30N 40°39' W 074°02'  
Track history (hours):
 
Tides and Currents Weather Stations Pressure Air Temp Water Temp Dewpoint Dewpoint Depression Visibility Wind Speed Wind Dir Waves Ship Positions

Nypd 317

Owner: New York City Police Department, Brooklyn, NY. More information available from US FCC via Universal Licensing System.

Last reported at 2017-Oct-19 02:42 UTC. Time now 2017-Oct-20 11:04 UTC.
Position N 40°39' W 074°02'.

Length 11 m; draft 1 m.

Type: Law enforcement. MMSI: 367707680.

Date/timePositionNaut miles runAvg speedWind from/ knotsBaromVisibWave heightAir tempDewpointWater temp
2017-Oct-19 02:42N 40°39' W 074°02'0 0.2
2017-Oct-19 00:17N 40°39' W 074°02'519.3
2017-Oct-19 00:00N 40°43' W 073°58'1210.0
2017-Oct-18 22:49N 40°51' W 073°46'3 1.2
2017-Oct-18 20:03N 40°48' W 073°47'128.9
2017-Oct-18 20:00N 40°48' W 073°49'1020.5
2017-Oct-18 19:30N 40°42' W 073°60'2 3.4
2017-Oct-18 19:01N 40°42' W 074°02'3 6.5
2017-Oct-18 18:30N 40°39' W 074°02'0 0.1
2017-Oct-18 18:00N 40°39' W 074°02'1016.5
2017-Oct-18 17:22N 40°48' W 073°56'822.6
2017-Oct-18 17:01N 40°41' W 074°01'2 0.1
2017-Oct-18 00:42N 40°39' W 074°02'0 0.1
2017-Oct-18 00:30N 40°39' W 074°02'1 2.9
2017-Oct-18 00:01N 40°40' W 074°01'1020.1
2017-Oct-17 23:30N 40°48' W 073°53'4 0.8
2017-Oct-17 18:56N 40°48' W 073°48'1024.1
2017-Oct-17 18:31N 40°42' W 073°60'3 5.0
2017-Oct-17 18:01N 40°41' W 074°03'3 0.1
2017-Oct-17 00:34N 40°39' W 074°02'0 0.1
2017-Oct-17 00:30N 40°39' W 074°02'611.9
2017-Oct-17 00:00N 40°44' W 073°58'7 1.9
2017-Oct-16 20:19N 40°48' W 073°51'826.1
2017-Oct-16 20:01N 40°43' W 073°59'2 3.7
2017-Oct-16 19:30N 40°43' W 074°01'0 0.0
2017-Oct-16 19:00N 40°43' W 074°01'1 2.4
2017-Oct-16 18:30N 40°42' W 074°02'3 0.2
2017-Oct-16 00:42N 40°39' W 074°02'0 0.0
2017-Oct-13 23:12N 40°39' W 074°02'420.0
2017-Oct-13 23:00N 40°39' W 074°07'4 0.8
2017-Oct-13 17:45N 40°35' W 074°04'519.8
2017-Oct-13 17:30N 40°40' W 074°03'1 2.2
2017-Oct-13 17:00N 40°40' W 074°01'1 0.1
2017-Oct-12 19:11N 40°39' W 074°02'1 7.6
2017-Oct-12 19:00N 40°40' W 074°01'1224.5
2017-Oct-12 18:30N 40°52' W 073°57'1 1.1
2017-Oct-12 18:00N 40°51' W 073°57'1 1.8
2017-Oct-12 17:30N 40°52' W 073°57'1 1.9
2017-Oct-12 17:00N 40°51' W 073°57'0 0.2
2017-Oct-12 16:29N 40°51' W 073°57'612.3
2017-Oct-12 16:00N 40°46' W 074°00'510.7
2017-Oct-12 15:29N 40°40' W 074°01'2 3.6
2017-Oct-12 15:00N 40°39' W 074°02'0 0.0
2017-Oct-12 00:38N 40°39' W 074°02'0 0.1
2017-Oct-12 00:30N 40°39' W 074°02'13 2.2
2017-Oct-11 18:34N 40°48' W 073°50'226.0
2017-Oct-11 18:30N 40°48' W 073°52'1123.0
2017-Oct-11 18:01N 40°39' W 074°02'0 0.9
2017-Oct-11 17:30N 40°39' W 074°02'3 0.1
2017-Oct-11 00:00N 40°41' W 074°03'3 5.9
2017-Oct-10 23:30N 40°43' W 073°59'1119.7
2017-Oct-10 22:58N 40°48' W 073°47'2 0.4
2017-Oct-10 19:01N 40°48' W 073°49'130.5
2017-Oct-10 19:00N 40°48' W 073°50'1021.1
2017-Oct-10 18:30N 40°42' W 074°01'3 5.0
2017-Oct-10 18:01N 40°40' W 074°03'3 0.1
2017-Oct-09 15:02N 40°43' W 074°01'0 0.7
2017-Oct-09 15:00N 40°43' W 074°01'1 2.2
2017-Oct-09 14:30N 40°43' W 073°60'0 0.0
2017-Oct-09 14:01N 40°43' W 073°60'0 0.0
2017-Oct-09 13:31N 40°43' W 073°60'4 1.1
2017-Oct-09 09:54N 40°39' W 074°02'0 0.1
2017-Oct-09 09:30N 40°39' W 074°02'  

Dump ship's entire track history